Etusivu
METAR-TAF:

METAR-TAF

Lentoasemat :

Mackinac Island Airport

Mackinac Island, Michigan, Yhdysvallat

Leveyspiiri: 45-51-54N, Pituuspiiri: 084-38-14W, korkeus merenpinnasta: 226 m

Tämänhetkinen sää

Tämä raportti tehtiin 12 minuuttia sitten, kello 19.55 UTC
Tuuli 11 kn idästä puuskistuen 16 kn:hen, vaihdellen idän/koillisen ja idän/kaakon välillä
Lämpötila 11°C
Kosteus 100%
Ilmanpaine 1002 hPa
Näkyvyys: 3.2 km
Pilvistä 200 ft:n korkeudessa
utua

METAR: KMCD 241955Z AUTO 09011G16KT 060V120 2SM BR OVC002 11/11 A2958 RMK AO2 T01050105

Aika: 16:07 (20:07 UTC)


TAF: puuttuu

Säähavainnot ja -ennusteet yli 4000 lentoasemalta (METAR- ja TAF-raportit).

Käytössä olevat sääasemat on merkitty karttaan keltaisilla ja punaisilla pisteillä.

Aseta hiiri pisteen päälle nähdäksesi sääaseman nimen.

Klikkaa sitten nähdäksesi säähavainnot ja -ennusteet.

Kartan vaihtaminen: klikkaa mustalla rastilla varustettuja vihreitä pisteitä, niin voit zoomata sisään; viivalla varustettua vihreää pistettä, niin voit zoomata ulos tai vihreitä nuolia, niin pääset viereisille kartoille.


METAR-TAF: